SLS7C LFPB-LSZS
Flight info
| Callsign | SLS7C |
|---|---|
| Flight time | 1h 23m |
| Altitude | 26000 |
| Route | BAXIR6Q BAXIR A6 SOMDA B13 RLP/N0270F250 Y112 LUL/N0278F190 Y112 HOC L613 RIPUS N850 GERSA Z50 PELAD DCT |
| Aircraft | PC12/L-VGDW/C |
Departure
| Time | 2026-05-08 13:06 |
|---|---|
| Airport | Paris-Le Bourget International Airport (LFPB) |
Arrival
| Time | 2026-05-08 14:30 |
|---|---|
| Airport | Engadin Airport (LSZS) |
| Time | Latitude | Longitude | Altitude | Speed | Heading |
|---|---|---|---|---|---|
| 2026-05-08 12:44 | 48.95410 | 2.43726 | 158 ft | 0 kts | 269° |
| 2026-05-08 13:00 | 48.95408 | 2.43717 | 158 ft | 1 kts | 238° |
| 2026-05-08 13:00 | 48.95399 | 2.43715 | 158 ft | 3 kts | 148° |
| 2026-05-08 13:01 | 48.95411 | 2.43773 | 159 ft | 9 kts | 82° |
| 2026-05-08 13:01 | 48.95411 | 2.43845 | 159 ft | 8 kts | 25° |
| 2026-05-08 13:01 | 48.95465 | 2.43889 | 160 ft | 10 kts | 27° |
| 2026-05-08 13:01 | 48.95522 | 2.43935 | 161 ft | 9 kts | 29° |
| 2026-05-08 13:02 | 48.95581 | 2.43979 | 162 ft | 11 kts | 25° |
| 2026-05-08 13:02 | 48.95640 | 2.43942 | 162 ft | 12 kts | 296° |
| 2026-05-08 13:02 | 48.95680 | 2.43814 | 162 ft | 14 kts | 296° |
| 2026-05-08 13:02 | 48.95734 | 2.43678 | 161 ft | 16 kts | 349° |
| 2026-05-08 13:03 | 48.95813 | 2.43603 | 161 ft | 16 kts | 297° |
| 2026-05-08 13:03 | 48.95867 | 2.43429 | 162 ft | 21 kts | 291° |
| 2026-05-08 13:03 | 48.95934 | 2.43203 | 161 ft | 26 kts | 297° |
| 2026-05-08 13:03 | 48.96035 | 2.42979 | 162 ft | 27 kts | 309° |
| 2026-05-08 13:04 | 48.96158 | 2.42747 | 161 ft | 29 kts | 310° |
| 2026-05-08 13:04 | 48.96265 | 2.42483 | 159 ft | 30 kts | 275° |
| 2026-05-08 13:04 | 48.96260 | 2.42215 | 157 ft | 11 kts | 269° |
| 2026-05-08 13:04 | 48.96280 | 2.42095 | 156 ft | 12 kts | 309° |
| 2026-05-08 13:05 | 48.96356 | 2.42071 | 155 ft | 12 kts | 19° |
| 2026-05-08 13:05 | 48.96374 | 2.42139 | 155 ft | 0 kts | 88° |
| 2026-05-08 13:05 | 48.96375 | 2.42170 | 156 ft | 17 kts | 85° |
| 2026-05-08 13:05 | 48.96402 | 2.42620 | 160 ft | 69 kts | 84° |
| 2026-05-08 13:06 | 48.96430 | 2.43510 | 280 ft | 92 kts | 89° |
| 2026-05-08 13:06 | 48.96452 | 2.44461 | 617 ft | 94 kts | 78° |
| 2026-05-08 13:06 | 48.96527 | 2.45541 | 918 ft | 111 kts | 83° |
| 2026-05-08 13:06 | 48.96638 | 2.46762 | 1435 ft | 119 kts | 82° |
| 2026-05-08 13:07 | 48.96720 | 2.48013 | 2038 ft | 119 kts | 89° |
| 2026-05-08 13:07 | 48.96710 | 2.49269 | 2771 ft | 119 kts | 92° |
| 2026-05-08 13:07 | 48.96669 | 2.50527 | 3479 ft | 120 kts | 94° |
| 2026-05-08 13:07 | 48.96610 | 2.51797 | 4099 ft | 121 kts | 95° |
| 2026-05-08 13:08 | 48.96543 | 2.53079 | 4754 ft | 122 kts | 95° |
| 2026-05-08 13:08 | 48.96473 | 2.54378 | 5387 ft | 124 kts | 95° |
| 2026-05-08 13:08 | 48.96400 | 2.55695 | 6006 ft | 126 kts | 96° |
| 2026-05-08 13:08 | 48.96326 | 2.57023 | 6594 ft | 132 kts | 96° |
| 2026-05-08 13:09 | 48.96243 | 2.58479 | 7091 ft | 144 kts | 96° |
| 2026-05-08 13:09 | 48.96151 | 2.60067 | 7595 ft | 157 kts | 97° |
| 2026-05-08 13:09 | 48.96052 | 2.61778 | 8111 ft | 169 kts | 97° |
| 2026-05-08 13:09 | 48.95947 | 2.63623 | 8633 ft | 182 kts | 97° |
| 2026-05-08 13:10 | 48.95835 | 2.65597 | 9158 ft | 192 kts | 97° |
| 2026-05-08 13:10 | 48.95720 | 2.67659 | 9685 ft | 198 kts | 97° |
| 2026-05-08 13:10 | 48.95602 | 2.69772 | 10200 ft | 203 kts | 97° |
| 2026-05-08 13:10 | 48.95479 | 2.71933 | 10677 ft | 207 kts | 97° |
| 2026-05-08 13:11 | 48.95354 | 2.74129 | 11174 ft | 210 kts | 97° |
| 2026-05-08 13:11 | 48.95228 | 2.76316 | 11669 ft | 211 kts | 97° |
| 2026-05-08 13:11 | 48.95091 | 2.78547 | 12174 ft | 212 kts | 100° |
| 2026-05-08 13:11 | 48.94910 | 2.80781 | 12696 ft | 214 kts | 98° |
| 2026-05-08 13:12 | 48.94768 | 2.83038 | 13218 ft | 215 kts | 98° |
| 2026-05-08 13:12 | 48.94610 | 2.85297 | 13750 ft | 215 kts | 99° |
| 2026-05-08 13:12 | 48.94439 | 2.87559 | 14236 ft | 215 kts | 99° |
| 2026-05-08 13:12 | 48.94270 | 2.89821 | 14715 ft | 215 kts | 99° |
| 2026-05-08 13:13 | 48.94102 | 2.92081 | 15209 ft | 215 kts | 99° |
| 2026-05-08 13:13 | 48.93933 | 2.94347 | 15704 ft | 216 kts | 99° |
| 2026-05-08 13:13 | 48.93764 | 2.96609 | 16208 ft | 215 kts | 99° |
| 2026-05-08 13:13 | 48.93595 | 2.98872 | 16725 ft | 215 kts | 99° |
| 2026-05-08 13:14 | 48.93426 | 3.01132 | 17248 ft | 215 kts | 99° |
| 2026-05-08 13:14 | 48.93256 | 3.03392 | 17780 ft | 215 kts | 99° |
| 2026-05-08 13:14 | 48.93087 | 3.05622 | 18310 ft | 215 kts | 99° |
| 2026-05-08 13:14 | 48.92916 | 3.07886 | 18791 ft | 216 kts | 99° |
| 2026-05-08 13:15 | 48.92743 | 3.10150 | 19264 ft | 215 kts | 100° |
| 2026-05-08 13:15 | 48.92336 | 3.12293 | 19756 ft | 210 kts | 115° |
| 2026-05-08 13:15 | 48.91790 | 3.14344 | 20252 ft | 210 kts | 116° |
| 2026-05-08 13:15 | 48.91245 | 3.16398 | 20758 ft | 209 kts | 116° |
| 2026-05-08 13:16 | 48.90710 | 3.18452 | 21266 ft | 209 kts | 115° |
| 2026-05-08 13:16 | 48.90178 | 3.20501 | 21789 ft | 208 kts | 115° |
| 2026-05-08 13:16 | 48.89646 | 3.22542 | 22316 ft | 207 kts | 116° |
| 2026-05-08 13:16 | 48.89124 | 3.24543 | 22851 ft | 206 kts | 116° |
| 2026-05-08 13:17 | 48.88596 | 3.26564 | 23400 ft | 206 kts | 116° |
| 2026-05-08 13:17 | 48.88070 | 3.28577 | 23906 ft | 205 kts | 116° |
| 2026-05-08 13:17 | 48.87544 | 3.30587 | 24367 ft | 205 kts | 116° |
| 2026-05-08 13:17 | 48.87018 | 3.32596 | 24853 ft | 205 kts | 116° |
| 2026-05-08 13:18 | 48.86493 | 3.34599 | 25329 ft | 204 kts | 115° |
| 2026-05-08 13:18 | 48.85968 | 3.36598 | 25824 ft | 204 kts | 115° |
| 2026-05-08 13:18 | 48.85424 | 3.38659 | 26005 ft | 222 kts | 115° |
| 2026-05-08 13:18 | 48.84825 | 3.40916 | 26013 ft | 245 kts | 115° |
| 2026-05-08 13:19 | 48.84164 | 3.43415 | 26018 ft | 264 kts | 115° |
| 2026-05-08 13:19 | 48.83461 | 3.46088 | 26021 ft | 280 kts | 114° |
| 2026-05-08 13:19 | 48.82724 | 3.48889 | 26016 ft | 291 kts | 114° |
| 2026-05-08 13:19 | 48.81959 | 3.51786 | 26017 ft | 300 kts | 114° |
| 2026-05-08 13:20 | 48.81226 | 3.54780 | 26014 ft | 307 kts | 105° |
| 2026-05-08 13:20 | 48.80938 | 3.58012 | 26015 ft | 311 kts | 96° |
| 2026-05-08 13:20 | 48.80751 | 3.61271 | 26016 ft | 311 kts | 96° |
| 2026-05-08 13:20 | 48.80553 | 3.64529 | 26017 ft | 309 kts | 96° |
| 2026-05-08 13:21 | 48.80338 | 3.67718 | 26018 ft | 307 kts | 97° |
| 2026-05-08 13:21 | 48.80121 | 3.70931 | 26016 ft | 305 kts | 97° |
| 2026-05-08 13:21 | 48.79912 | 3.74127 | 26013 ft | 304 kts | 97° |
| 2026-05-08 13:21 | 48.79704 | 3.77307 | 26013 ft | 303 kts | 97° |
| 2026-05-08 13:22 | 48.79494 | 3.80474 | 26011 ft | 301 kts | 97° |
| 2026-05-08 13:22 | 48.79283 | 3.83633 | 26005 ft | 301 kts | 97° |
| 2026-05-08 13:22 | 48.79072 | 3.86784 | 26010 ft | 300 kts | 97° |
| 2026-05-08 13:22 | 48.78599 | 3.89819 | 26001 ft | 295 kts | 120° |
| 2026-05-08 13:23 | 48.77266 | 3.91996 | 25995 ft | 285 kts | 153° |
| 2026-05-08 13:23 | 48.75425 | 3.92852 | 26008 ft | 275 kts | 176° |
| 2026-05-08 13:23 | 48.73538 | 3.93176 | 26004 ft | 275 kts | 177° |
| 2026-05-08 13:23 | 48.71648 | 3.93660 | 26005 ft | 277 kts | 171° |
| 2026-05-08 13:24 | 48.69804 | 3.94558 | 26013 ft | 281 kts | 160° |
| 2026-05-08 13:24 | 48.68077 | 3.95983 | 26013 ft | 284 kts | 152° |
| 2026-05-08 13:24 | 48.66401 | 3.97565 | 26015 ft | 284 kts | 153° |
| 2026-05-08 13:24 | 48.64697 | 3.99023 | 26008 ft | 283 kts | 156° |
| 2026-05-08 13:25 | 48.62977 | 4.00395 | 26005 ft | 284 kts | 156° |
| 2026-05-08 13:25 | 48.61237 | 4.01812 | 26003 ft | 284 kts | 155° |
| 2026-05-08 13:25 | 48.59506 | 4.03262 | 26008 ft | 285 kts | 155° |
| 2026-05-08 13:25 | 48.57772 | 4.04709 | 26002 ft | 285 kts | 155° |
| 2026-05-08 13:26 | 48.56033 | 4.06147 | 25999 ft | 285 kts | 156° |
| 2026-05-08 13:26 | 48.54296 | 4.07578 | 25999 ft | 287 kts | 156° |
| 2026-05-08 13:26 | 48.52543 | 4.09025 | 25995 ft | 288 kts | 156° |
| 2026-05-08 13:26 | 48.50783 | 4.10478 | 26003 ft | 289 kts | 156° |
| 2026-05-08 13:27 | 48.49020 | 4.11933 | 26000 ft | 289 kts | 156° |
| 2026-05-08 13:27 | 48.47275 | 4.13369 | 25990 ft | 290 kts | 156° |
| 2026-05-08 13:27 | 48.45514 | 4.14818 | 26000 ft | 290 kts | 156° |
| 2026-05-08 13:27 | 48.43741 | 4.16276 | 25999 ft | 291 kts | 156° |
| 2026-05-08 13:28 | 48.41964 | 4.17737 | 26000 ft | 291 kts | 156° |
| 2026-05-08 13:28 | 48.40186 | 4.19197 | 25999 ft | 291 kts | 156° |
| 2026-05-08 13:28 | 48.38405 | 4.20658 | 26000 ft | 291 kts | 156° |
| 2026-05-08 13:28 | 48.36627 | 4.22116 | 25996 ft | 291 kts | 156° |
| 2026-05-08 13:29 | 48.34853 | 4.23583 | 25995 ft | 291 kts | 154° |
| 2026-05-08 13:29 | 48.33338 | 4.25572 | 26003 ft | 298 kts | 131° |
| 2026-05-08 13:29 | 48.32184 | 4.28166 | 26008 ft | 299 kts | 125° |
| 2026-05-08 13:29 | 48.31084 | 4.30826 | 26008 ft | 300 kts | 125° |
| 2026-05-08 13:30 | 48.29974 | 4.33484 | 26005 ft | 300 kts | 126° |
| 2026-05-08 13:30 | 48.28849 | 4.36129 | 26003 ft | 300 kts | 126° |
| 2026-05-08 13:30 | 48.27724 | 4.38770 | 25999 ft | 300 kts | 126° |
| 2026-05-08 13:30 | 48.26603 | 4.41417 | 25999 ft | 300 kts | 126° |
| 2026-05-08 13:31 | 48.25482 | 4.44064 | 25993 ft | 300 kts | 126° |
| 2026-05-08 13:31 | 48.24358 | 4.46709 | 25993 ft | 301 kts | 126° |
| 2026-05-08 13:31 | 48.23248 | 4.49317 | 25992 ft | 301 kts | 126° |
| 2026-05-08 13:31 | 48.22123 | 4.51962 | 25990 ft | 301 kts | 126° |
| 2026-05-08 13:32 | 48.20996 | 4.54606 | 25988 ft | 301 kts | 126° |
| 2026-05-08 13:32 | 48.19870 | 4.57247 | 25986 ft | 301 kts | 126° |
| 2026-05-08 13:32 | 48.18743 | 4.59886 | 25981 ft | 300 kts | 126° |
| 2026-05-08 13:32 | 48.17618 | 4.62519 | 25980 ft | 300 kts | 126° |
| 2026-05-08 13:33 | 48.16492 | 4.65151 | 25982 ft | 300 kts | 126° |
| 2026-05-08 13:33 | 48.15372 | 4.67769 | 25981 ft | 300 kts | 126° |
| 2026-05-08 13:33 | 48.14259 | 4.70366 | 25981 ft | 300 kts | 126° |
| 2026-05-08 13:33 | 48.13137 | 4.72982 | 25982 ft | 300 kts | 126° |
| 2026-05-08 13:34 | 48.12010 | 4.75607 | 25976 ft | 300 kts | 126° |
| 2026-05-08 13:34 | 48.10882 | 4.78230 | 25985 ft | 299 kts | 126° |
| 2026-05-08 13:34 | 48.09755 | 4.80849 | 25979 ft | 300 kts | 126° |
| 2026-05-08 13:34 | 48.08627 | 4.83470 | 25981 ft | 300 kts | 126° |
| 2026-05-08 13:35 | 48.07497 | 4.86091 | 25975 ft | 300 kts | 126° |
| 2026-05-08 13:35 | 48.06367 | 4.88710 | 25976 ft | 299 kts | 126° |
| 2026-05-08 13:35 | 48.05238 | 4.91326 | 25978 ft | 299 kts | 126° |
| 2026-05-08 13:35 | 48.04109 | 4.93937 | 25973 ft | 299 kts | 126° |
| 2026-05-08 13:36 | 48.02994 | 4.96513 | 25976 ft | 299 kts | 126° |
| 2026-05-08 13:36 | 48.01863 | 4.99124 | 25979 ft | 299 kts | 126° |
| 2026-05-08 13:36 | 48.00734 | 5.01730 | 25977 ft | 299 kts | 126° |
| 2026-05-08 13:36 | 47.99605 | 5.04332 | 25976 ft | 298 kts | 126° |
| 2026-05-08 13:37 | 47.98477 | 5.06928 | 25973 ft | 298 kts | 126° |
| 2026-05-08 13:37 | 47.97348 | 5.09525 | 25975 ft | 298 kts | 126° |
| 2026-05-08 13:37 | 47.96219 | 5.12117 | 25975 ft | 298 kts | 126° |
| 2026-05-08 13:37 | 47.95090 | 5.14710 | 25971 ft | 298 kts | 126° |
| 2026-05-08 13:38 | 47.93976 | 5.17265 | 25975 ft | 298 kts | 127° |
| 2026-05-08 13:38 | 47.92848 | 5.19851 | 25972 ft | 298 kts | 127° |
| 2026-05-08 13:38 | 47.91717 | 5.22438 | 25974 ft | 298 kts | 126° |
| 2026-05-08 13:38 | 47.90647 | 5.25076 | 25972 ft | 299 kts | 117° |
| 2026-05-08 13:39 | 47.89984 | 5.28023 | 25983 ft | 300 kts | 109° |
| 2026-05-08 13:39 | 47.89394 | 5.31008 | 25982 ft | 300 kts | 109° |
| 2026-05-08 13:39 | 47.88795 | 5.33993 | 25977 ft | 301 kts | 109° |
| 2026-05-08 13:39 | 47.88182 | 5.36971 | 25982 ft | 301 kts | 109° |
| 2026-05-08 13:40 | 47.87568 | 5.39956 | 25978 ft | 301 kts | 109° |
| 2026-05-08 13:40 | 47.86967 | 5.42894 | 25971 ft | 301 kts | 109° |
| 2026-05-08 13:40 | 47.86357 | 5.45881 | 25977 ft | 301 kts | 109° |
| 2026-05-08 13:40 | 47.85744 | 5.48864 | 25979 ft | 301 kts | 110° |
| 2026-05-08 13:41 | 47.85130 | 5.51850 | 25976 ft | 301 kts | 110° |
| 2026-05-08 13:41 | 47.84515 | 5.54834 | 25975 ft | 301 kts | 110° |
| 2026-05-08 13:41 | 47.83900 | 5.57818 | 25975 ft | 302 kts | 110° |
| 2026-05-08 13:41 | 47.83284 | 5.60799 | 25975 ft | 301 kts | 110° |
| 2026-05-08 13:42 | 47.82668 | 5.63778 | 25974 ft | 301 kts | 110° |
| 2026-05-08 13:42 | 47.82056 | 5.66731 | 25978 ft | 300 kts | 110° |
| 2026-05-08 13:42 | 47.81449 | 5.69658 | 25974 ft | 300 kts | 110° |
| 2026-05-08 13:42 | 47.80837 | 5.72604 | 25972 ft | 300 kts | 110° |
| 2026-05-08 13:43 | 47.80221 | 5.75568 | 25970 ft | 300 kts | 110° |
| 2026-05-08 13:43 | 47.79602 | 5.78534 | 25972 ft | 300 kts | 110° |
| 2026-05-08 13:43 | 47.78984 | 5.81498 | 25971 ft | 300 kts | 110° |
| 2026-05-08 13:43 | 47.78366 | 5.84456 | 25975 ft | 300 kts | 110° |
| 2026-05-08 13:44 | 47.77746 | 5.87417 | 25968 ft | 300 kts | 110° |
| 2026-05-08 13:44 | 47.77126 | 5.90377 | 25970 ft | 300 kts | 110° |
| 2026-05-08 13:44 | 47.76505 | 5.93339 | 25970 ft | 300 kts | 110° |
| 2026-05-08 13:44 | 47.75891 | 5.96260 | 25967 ft | 300 kts | 110° |
| 2026-05-08 13:45 | 47.75269 | 5.99215 | 25968 ft | 300 kts | 110° |
| 2026-05-08 13:45 | 47.74646 | 6.02170 | 25971 ft | 300 kts | 110° |
| 2026-05-08 13:45 | 47.74023 | 6.05121 | 25967 ft | 299 kts | 110° |
| 2026-05-08 13:45 | 47.73400 | 6.08071 | 25969 ft | 299 kts | 110° |
| 2026-05-08 13:46 | 47.72776 | 6.11018 | 25971 ft | 299 kts | 110° |
| 2026-05-08 13:46 | 47.72150 | 6.13966 | 25966 ft | 299 kts | 110° |
| 2026-05-08 13:46 | 47.71525 | 6.16912 | 25965 ft | 299 kts | 110° |
| 2026-05-08 13:46 | 47.70908 | 6.19814 | 25966 ft | 299 kts | 110° |
| 2026-05-08 13:47 | 47.70282 | 6.22753 | 25966 ft | 299 kts | 110° |
| 2026-05-08 13:47 | 47.69654 | 6.25697 | 25967 ft | 299 kts | 110° |
| 2026-05-08 13:47 | 47.69044 | 6.28555 | 25966 ft | 299 kts | 111° |
| 2026-05-08 13:47 | 47.68300 | 6.31408 | 25970 ft | 296 kts | 117° |
| 2026-05-08 13:48 | 47.67495 | 6.34186 | 25966 ft | 296 kts | 116° |
| 2026-05-08 13:48 | 47.66680 | 6.37030 | 25967 ft | 296 kts | 116° |
| 2026-05-08 13:48 | 47.65874 | 6.39835 | 25968 ft | 296 kts | 116° |
| 2026-05-08 13:48 | 47.65081 | 6.42577 | 25966 ft | 296 kts | 116° |
| 2026-05-08 13:49 | 47.64270 | 6.45377 | 25969 ft | 296 kts | 117° |
| 2026-05-08 13:49 | 47.63458 | 6.48183 | 25966 ft | 296 kts | 116° |
| 2026-05-08 13:49 | 47.62647 | 6.50984 | 25965 ft | 296 kts | 117° |
| 2026-05-08 13:49 | 47.61834 | 6.53786 | 25974 ft | 296 kts | 117° |
| 2026-05-08 13:50 | 47.61021 | 6.56585 | 25972 ft | 296 kts | 117° |
| 2026-05-08 13:50 | 47.60207 | 6.59386 | 25969 ft | 296 kts | 117° |
| 2026-05-08 13:50 | 47.59391 | 6.62187 | 25970 ft | 296 kts | 117° |
| 2026-05-08 13:50 | 47.58576 | 6.64985 | 25969 ft | 296 kts | 117° |
| 2026-05-08 13:51 | 47.57762 | 6.67777 | 25970 ft | 296 kts | 117° |
| 2026-05-08 13:51 | 47.56957 | 6.70531 | 25974 ft | 295 kts | 117° |
| 2026-05-08 13:51 | 47.56195 | 6.73354 | 25971 ft | 297 kts | 108° |
| 2026-05-08 13:51 | 47.55844 | 6.76369 | 25979 ft | 298 kts | 101° |
| 2026-05-08 13:52 | 47.55564 | 6.79405 | 25978 ft | 298 kts | 100° |
| 2026-05-08 13:52 | 47.55273 | 6.82446 | 25979 ft | 298 kts | 101° |
| 2026-05-08 13:52 | 47.54968 | 6.85484 | 25977 ft | 298 kts | 101° |
| 2026-05-08 13:52 | 47.54664 | 6.88522 | 25978 ft | 299 kts | 101° |
| 2026-05-08 13:53 | 47.54363 | 6.91561 | 25980 ft | 299 kts | 101° |
| 2026-05-08 13:53 | 47.54062 | 6.94600 | 25977 ft | 299 kts | 101° |
| 2026-05-08 13:53 | 47.53762 | 6.97605 | 25984 ft | 299 kts | 101° |
| 2026-05-08 13:53 | 47.53456 | 7.00658 | 25979 ft | 300 kts | 101° |
| 2026-05-08 13:54 | 47.53148 | 7.03715 | 25980 ft | 300 kts | 101° |
| 2026-05-08 13:54 | 47.52840 | 7.06770 | 25980 ft | 300 kts | 101° |
| 2026-05-08 13:54 | 47.52536 | 7.09792 | 25981 ft | 300 kts | 101° |
| 2026-05-08 13:54 | 47.52227 | 7.12844 | 25982 ft | 300 kts | 101° |
| 2026-05-08 13:55 | 47.51917 | 7.15898 | 25983 ft | 300 kts | 101° |
| 2026-05-08 13:55 | 47.51607 | 7.18946 | 25981 ft | 300 kts | 101° |
| 2026-05-08 13:55 | 47.50988 | 7.25000 | 25982 ft | 300 kts | 101° |
| 2026-05-08 13:56 | 47.50676 | 7.28047 | 25980 ft | 300 kts | 101° |
| 2026-05-08 13:56 | 47.50362 | 7.31096 | 25979 ft | 300 kts | 101° |
| 2026-05-08 13:56 | 47.50048 | 7.34142 | 25976 ft | 299 kts | 101° |
| 2026-05-08 13:56 | 47.49734 | 7.37187 | 25974 ft | 299 kts | 102° |
| 2026-05-08 13:57 | 47.49419 | 7.40223 | 25972 ft | 299 kts | 102° |
| 2026-05-08 13:57 | 47.49103 | 7.43261 | 25973 ft | 299 kts | 102° |
| 2026-05-08 13:57 | 47.48786 | 7.46303 | 25973 ft | 299 kts | 102° |
| 2026-05-08 13:57 | 47.48473 | 7.49304 | 25970 ft | 299 kts | 102° |
| 2026-05-08 13:58 | 47.48238 | 7.51547 | 25972 ft | 299 kts | 102° |
| 2026-05-08 13:58 | 47.47920 | 7.54584 | 25973 ft | 299 kts | 102° |
| 2026-05-08 13:58 | 47.47599 | 7.57626 | 25970 ft | 299 kts | 102° |
| 2026-05-08 13:58 | 47.47279 | 7.60666 | 25974 ft | 299 kts | 102° |
| 2026-05-08 13:59 | 47.46957 | 7.63705 | 25974 ft | 299 kts | 102° |
| 2026-05-08 13:59 | 47.46600 | 7.66726 | 25970 ft | 297 kts | 108° |
| 2026-05-08 13:59 | 47.45949 | 7.69597 | 25977 ft | 294 kts | 113° |
| 2026-05-08 13:59 | 47.45237 | 7.72432 | 25979 ft | 295 kts | 114° |
| 2026-05-08 14:00 | 47.44530 | 7.75275 | 25979 ft | 295 kts | 113° |
| 2026-05-08 14:00 | 47.43840 | 7.78129 | 25978 ft | 296 kts | 113° |
| 2026-05-08 14:00 | 47.43147 | 7.80993 | 25980 ft | 296 kts | 113° |
| 2026-05-08 14:00 | 47.42450 | 7.83848 | 25982 ft | 296 kts | 113° |
| 2026-05-08 14:01 | 47.41758 | 7.86668 | 25981 ft | 296 kts | 113° |
| 2026-05-08 14:01 | 47.41059 | 7.89524 | 25983 ft | 296 kts | 113° |
| 2026-05-08 14:01 | 47.40359 | 7.92384 | 25980 ft | 296 kts | 113° |
| 2026-05-08 14:01 | 47.39658 | 7.95239 | 25984 ft | 296 kts | 114° |
| 2026-05-08 14:02 | 47.38955 | 7.98101 | 25987 ft | 297 kts | 114° |
| 2026-05-08 14:02 | 47.38250 | 8.00966 | 25985 ft | 297 kts | 114° |
| 2026-05-08 14:02 | 47.37544 | 8.03834 | 25984 ft | 298 kts | 114° |
| 2026-05-08 14:02 | 47.37314 | 8.04764 | 25987 ft | 298 kts | 114° |
| 2026-05-08 14:03 | 47.36554 | 8.07845 | 25978 ft | 298 kts | 114° |
| 2026-05-08 14:03 | 47.35843 | 8.10720 | 25983 ft | 299 kts | 114° |
| 2026-05-08 14:03 | 47.35171 | 8.13435 | 25982 ft | 300 kts | 114° |
| 2026-05-08 14:03 | 47.34458 | 8.16316 | 25983 ft | 299 kts | 114° |
| 2026-05-08 14:04 | 47.33742 | 8.19202 | 25987 ft | 300 kts | 114° |
| 2026-05-08 14:04 | 47.33025 | 8.22090 | 25988 ft | 300 kts | 114° |
| 2026-05-08 14:04 | 47.32306 | 8.24982 | 25987 ft | 300 kts | 114° |
| 2026-05-08 14:04 | 47.31587 | 8.27870 | 25987 ft | 300 kts | 114° |
| 2026-05-08 14:05 | 47.30876 | 8.30721 | 25982 ft | 300 kts | 114° |
| 2026-05-08 14:05 | 47.30156 | 8.33606 | 25979 ft | 300 kts | 114° |
| 2026-05-08 14:05 | 47.29432 | 8.36495 | 25978 ft | 300 kts | 114° |
| 2026-05-08 14:05 | 47.28708 | 8.39374 | 25979 ft | 300 kts | 114° |
| 2026-05-08 14:06 | 47.27982 | 8.42257 | 25978 ft | 301 kts | 114° |
| 2026-05-08 14:06 | 47.27249 | 8.45136 | 25974 ft | 299 kts | 116° |
| 2026-05-08 14:06 | 47.26166 | 8.47679 | 25973 ft | 291 kts | 137° |
| 2026-05-08 14:06 | 47.24612 | 8.49494 | 25973 ft | 282 kts | 156° |
| 2026-05-08 14:07 | 47.22820 | 8.50446 | 25970 ft | 275 kts | 174° |
| 2026-05-08 14:07 | 47.20934 | 8.50766 | 25973 ft | 273 kts | 179° |
| 2026-05-08 14:07 | 47.19043 | 8.51026 | 25973 ft | 273 kts | 179° |
| 2026-05-08 14:07 | 47.17157 | 8.51293 | 25972 ft | 273 kts | 179° |
| 2026-05-08 14:08 | 47.15262 | 8.51572 | 25972 ft | 273 kts | 179° |
| 2026-05-08 14:08 | 47.13368 | 8.51850 | 25979 ft | 273 kts | 179° |
| 2026-05-08 14:08 | 47.11475 | 8.52124 | 25974 ft | 274 kts | 179° |
| 2026-05-08 14:08 | 47.09576 | 8.52398 | 25976 ft | 274 kts | 179° |
| 2026-05-08 14:09 | 47.07677 | 8.52674 | 25972 ft | 275 kts | 179° |
| 2026-05-08 14:09 | 47.05808 | 8.53041 | 25972 ft | 277 kts | 170° |
| 2026-05-08 14:09 | 47.04064 | 8.54305 | 25980 ft | 285 kts | 147° |
| 2026-05-08 14:09 | 47.02750 | 8.56504 | 25991 ft | 292 kts | 124° |
| 2026-05-08 14:10 | 47.01776 | 8.59118 | 25991 ft | 292 kts | 121° |
| 2026-05-08 14:10 | 47.00847 | 8.61767 | 25970 ft | 293 kts | 122° |
| 2026-05-08 14:10 | 46.99888 | 8.64443 | 25703 ft | 301 kts | 122° |
| 2026-05-08 14:10 | 46.98890 | 8.67167 | 25391 ft | 304 kts | 122° |
| 2026-05-08 14:11 | 46.97909 | 8.69861 | 25149 ft | 303 kts | 122° |
| 2026-05-08 14:11 | 46.96925 | 8.72581 | 24905 ft | 302 kts | 121° |
| 2026-05-08 14:11 | 46.95941 | 8.75292 | 24670 ft | 301 kts | 121° |
| 2026-05-08 14:11 | 46.94960 | 8.77985 | 24432 ft | 298 kts | 121° |
| 2026-05-08 14:12 | 46.93985 | 8.80659 | 24187 ft | 297 kts | 121° |
| 2026-05-08 14:12 | 46.93013 | 8.83323 | 23967 ft | 297 kts | 121° |
| 2026-05-08 14:12 | 46.92039 | 8.85990 | 23740 ft | 298 kts | 121° |
| 2026-05-08 14:12 | 46.91061 | 8.88664 | 23477 ft | 298 kts | 121° |
| 2026-05-08 14:13 | 46.90085 | 8.91334 | 23201 ft | 297 kts | 121° |
| 2026-05-08 14:13 | 46.89166 | 8.93983 | 22932 ft | 297 kts | 113° |
| 2026-05-08 14:13 | 46.88735 | 8.96935 | 22668 ft | 297 kts | 98° |
| 2026-05-08 14:13 | 46.88533 | 8.99602 | 22435 ft | 298 kts | 97° |
| 2026-05-08 14:14 | 46.88314 | 9.02615 | 22166 ft | 298 kts | 97° |
| 2026-05-08 14:14 | 46.88079 | 9.05611 | 21896 ft | 296 kts | 98° |
| 2026-05-08 14:14 | 46.87837 | 9.08592 | 21631 ft | 295 kts | 98° |
| 2026-05-08 14:14 | 46.87601 | 9.11557 | 21367 ft | 293 kts | 97° |
| 2026-05-08 14:15 | 46.87367 | 9.14516 | 21110 ft | 293 kts | 98° |
| 2026-05-08 14:15 | 46.87133 | 9.17466 | 20852 ft | 292 kts | 98° |
| 2026-05-08 14:15 | 46.86900 | 9.20363 | 20607 ft | 291 kts | 98° |
| 2026-05-08 14:15 | 46.86665 | 9.23292 | 20357 ft | 290 kts | 98° |
| 2026-05-08 14:16 | 46.86429 | 9.26216 | 20109 ft | 289 kts | 98° |
| 2026-05-08 14:16 | 46.86194 | 9.29134 | 19859 ft | 290 kts | 98° |
| 2026-05-08 14:16 | 46.85956 | 9.32071 | 19678 ft | 291 kts | 98° |
| 2026-05-08 14:16 | 46.85718 | 9.35002 | 19505 ft | 290 kts | 98° |
| 2026-05-08 14:17 | 46.85479 | 9.37925 | 19328 ft | 288 kts | 98° |
| 2026-05-08 14:17 | 46.85246 | 9.40777 | 19172 ft | 286 kts | 98° |
| 2026-05-08 14:17 | 46.85009 | 9.43662 | 19004 ft | 286 kts | 98° |
| 2026-05-08 14:17 | 46.84772 | 9.46544 | 18842 ft | 285 kts | 98° |
| 2026-05-08 14:18 | 46.84534 | 9.49415 | 18674 ft | 285 kts | 98° |
| 2026-05-08 14:18 | 46.84296 | 9.52288 | 18511 ft | 285 kts | 98° |
| 2026-05-08 14:18 | 46.84058 | 9.55152 | 18350 ft | 284 kts | 98° |
| 2026-05-08 14:18 | 46.83819 | 9.58018 | 18171 ft | 285 kts | 98° |
| 2026-05-08 14:19 | 46.83579 | 9.60883 | 17982 ft | 284 kts | 98° |
| 2026-05-08 14:19 | 46.83420 | 9.62778 | 17855 ft | 284 kts | 98° |
| 2026-05-08 14:19 | 46.83102 | 9.66567 | 17612 ft | 284 kts | 98° |
| 2026-05-08 14:19 | 46.82861 | 9.69423 | 17434 ft | 283 kts | 98° |
| 2026-05-08 14:20 | 46.82619 | 9.72274 | 17251 ft | 282 kts | 98° |
| 2026-05-08 14:20 | 46.82378 | 9.75112 | 17070 ft | 281 kts | 98° |
| 2026-05-08 14:20 | 46.82138 | 9.77934 | 16888 ft | 280 kts | 98° |
| 2026-05-08 14:20 | 46.81897 | 9.80751 | 16704 ft | 279 kts | 98° |
| 2026-05-08 14:21 | 46.81738 | 9.82610 | 16588 ft | 278 kts | 98° |
| 2026-05-08 14:21 | 46.81420 | 9.86310 | 16354 ft | 277 kts | 98° |
| 2026-05-08 14:21 | 46.81179 | 9.89101 | 16179 ft | 277 kts | 98° |
| 2026-05-08 14:21 | 46.80937 | 9.91898 | 15999 ft | 277 kts | 98° |
| 2026-05-08 14:22 | 46.80696 | 9.94681 | 15821 ft | 276 kts | 98° |
| 2026-05-08 14:22 | 46.80537 | 9.96518 | 15704 ft | 275 kts | 98° |
| 2026-05-08 14:22 | 46.80297 | 9.99271 | 15526 ft | 273 kts | 98° |
| 2026-05-08 14:22 | 46.80057 | 10.02022 | 15370 ft | 274 kts | 98° |
| 2026-05-08 14:23 | 46.79815 | 10.04786 | 15180 ft | 275 kts | 98° |
| 2026-05-08 14:23 | 46.79571 | 10.07554 | 15013 ft | 276 kts | 98° |
| 2026-05-08 14:23 | 46.79250 | 10.11201 | 14784 ft | 272 kts | 98° |
| 2026-05-08 14:23 | 46.79086 | 10.13052 | 14661 ft | 271 kts | 99° |
| 2026-05-08 14:24 | 46.78137 | 10.16319 | 14326 ft | 268 kts | 135° |
| 2026-05-08 14:24 | 46.77109 | 10.17341 | 14158 ft | 264 kts | 158° |
| 2026-05-08 14:24 | 46.75347 | 10.17625 | 13904 ft | 259 kts | 190° |
| 2026-05-08 14:24 | 46.73750 | 10.16521 | 13646 ft | 255 kts | 219° |
| 2026-05-08 14:25 | 46.72334 | 10.14982 | 13367 ft | 253 kts | 216° |
| 2026-05-08 14:25 | 46.70963 | 10.13366 | 13074 ft | 255 kts | 221° |
| 2026-05-08 14:25 | 46.69639 | 10.11619 | 12825 ft | 256 kts | 222° |
| 2026-05-08 14:25 | 46.67928 | 10.09337 | 12604 ft | 250 kts | 223° |
| 2026-05-08 14:26 | 46.67081 | 10.08153 | 12450 ft | 250 kts | 224° |
| 2026-05-08 14:26 | 46.65846 | 10.06337 | 12176 ft | 254 kts | 225° |
| 2026-05-08 14:26 | 46.64620 | 10.04502 | 11751 ft | 260 kts | 225° |
| 2026-05-08 14:26 | 46.63359 | 10.02590 | 11236 ft | 260 kts | 225° |
| 2026-05-08 14:27 | 46.62136 | 10.00751 | 10827 ft | 249 kts | 226° |
| 2026-05-08 14:27 | 46.60970 | 9.98921 | 10245 ft | 241 kts | 227° |
| 2026-05-08 14:27 | 46.59866 | 9.97183 | 9278 ft | 228 kts | 228° |
| 2026-05-08 14:27 | 46.58895 | 9.95540 | 8749 ft | 200 kts | 229° |
| 2026-05-08 14:28 | 46.58053 | 9.94167 | 8412 ft | 163 kts | 226° |
| 2026-05-08 14:28 | 46.57423 | 9.93059 | 8127 ft | 122 kts | 233° |
| 2026-05-08 14:28 | 46.56891 | 9.92155 | 7443 ft | 119 kts | 227° |
| 2026-05-08 14:28 | 46.56328 | 9.91257 | 6881 ft | 119 kts | 226° |
| 2026-05-08 14:29 | 46.55771 | 9.90452 | 6643 ft | 110 kts | 221° |
| 2026-05-08 14:29 | 46.55149 | 9.89800 | 6213 ft | 108 kts | 212° |
| 2026-05-08 14:29 | 46.54526 | 9.89287 | 5858 ft | 99 kts | 207° |
| 2026-05-08 14:29 | 46.53953 | 9.88831 | 5612 ft | 85 kts | 209° |
| 2026-05-08 14:30 | 46.53510 | 9.88464 | 5611 ft | 62 kts | 209° |
| 2026-05-08 14:30 | 46.53179 | 9.88195 | 5612 ft | 49 kts | 207° |
| 2026-05-08 14:30 | 46.52993 | 9.88042 | 5602 ft | 17 kts | 229° |
| 2026-05-08 14:30 | 46.53025 | 9.87963 | 5604 ft | 13 kts | 34° |
| 2026-05-08 14:31 | 46.53109 | 9.88033 | 5608 ft | 7 kts | 28° |
| 2026-05-08 14:31 | 46.53127 | 9.88027 | 5610 ft | 0 kts | 298° |